Doris Schepers — CQZY — position and weather

sailwx.info

Track history (hours):
 
Tides and Currents Weather Stations Pressure Air Temp Water Temp Dewpoint Dewpoint Depression Visibility Wind Speed Wind Dir Waves Ship Positions

Doris Schepers

Last reported at 2017-Nov-17 23:26 UTC. Time now 2017-Nov-18 08:49 UTC.
Position N 41°18' E 002°11'.

Length 141 m; draft 5.8 m.

Type: Ship (hazmat cat A). MMSI: 255805878.

Date/timePositionNaut miles runAvg speedWind from/ knotsBaromVisibWave heightAir tempDewpointWater temp
2017-Nov-17 23:26N 41°18' E 002°11'24112.0
2017-Nov-17 03:19N 43°09' E 006°59'517.5
2017-Nov-17 03:00N 43°12' E 007°05'917.6
2017-Nov-17 02:31N 43°16' E 007°16'917.2
2017-Nov-17 02:01N 43°21' E 007°26'917.2
2017-Nov-17 01:30N 43°25' E 007°36'1517.2
2017-Nov-17 00:38N 43°33' E 007°54'217.8
2017-Nov-17 00:30N 43°35' E 007°56'1818.1
2017-Nov-16 23:31N 43°47' E 008°13'117.7
2017-Nov-16 23:28N 43°48' E 008°14'817.8
2017-Nov-16 23:00N 43°54' E 008°22'918.1
2017-Nov-16 22:31N 44°00' E 008°31'917.6
2017-Nov-16 22:01N 44°07' E 008°39'917.6
2017-Nov-16 21:30N 44°13' E 008°48'917.7
2017-Nov-16 21:01N 44°20' E 008°56'5 9.5
2017-Nov-16 20:30N 44°24' E 008°54'0 0.9
2017-Nov-16 19:57N 44°24' E 008°53'0 0.0
2017-Nov-16 19:30N 44°24' E 008°53'0 0.0
2017-Nov-16 18:57N 44°24' E 008°53'0 0.0
2017-Nov-16 18:30N 44°24' E 008°53'0 0.0
2017-Nov-16 18:00N 44°24' E 008°53'0 0.0
2017-Nov-16 17:27N 44°24' E 008°53'0 0.0
2017-Nov-16 17:00N 44°24' E 008°53'0 0.0
2017-Nov-16 16:30N 44°24' E 008°53'0 0.0
2017-Nov-16 16:00N 44°24' E 008°53'0 0.0
2017-Nov-16 15:30N 44°24' E 008°53'0 0.0
2017-Nov-16 15:00N 44°24' E 008°53'0 0.0
2017-Nov-16 14:30N 44°24' E 008°53'0 0.0
2017-Nov-16 14:00N 44°24' E 008°53'0 0.0
2017-Nov-16 13:30N 44°24' E 008°53'0 0.0
2017-Nov-16 13:00N 44°24' E 008°53'0 0.0
2017-Nov-16 12:30N 44°24' E 008°53'0 0.0
2017-Nov-16 12:00N 44°24' E 008°53'0 0.0
2017-Nov-16 11:30N 44°24' E 008°53'0 0.0
2017-Nov-16 11:00N 44°24' E 008°53'0 0.0
2017-Nov-16 10:30N 44°24' E 008°53'0 0.0
2017-Nov-16 10:00N 44°24' E 008°53'0 0.0
2017-Nov-16 09:30N 44°24' E 008°53'0 0.0
2017-Nov-16 09:00N 44°24' E 008°53'0 0.0
2017-Nov-16 08:30N 44°24' E 008°53'0 0.0
2017-Nov-16 08:00N 44°24' E 008°53'0 0.0
2017-Nov-16 07:30N 44°24' E 008°53'0 0.0
2017-Nov-16 07:00N 44°24' E 008°53'0 0.0
2017-Nov-16 06:30N 44°24' E 008°53'1 1.2
2017-Nov-16 06:00N 44°24' E 008°54'3 6.3
2017-Nov-16 05:30N 44°22' E 008°58'611.6
2017-Nov-16 05:00N 44°17' E 008°55'816.1
2017-Nov-16 04:30N 44°11' E 008°47'816.1
2017-Nov-16 04:00N 44°06' E 008°39'815.5
2017-Nov-16 03:30N 44°00' E 008°31'815.2
2017-Nov-16 03:00N 43°55' E 008°23'4315.1
2017-Nov-16 00:11N 43°28' E 007°37'315.5
2017-Nov-15 23:58N 43°26' E 007°33'715.5
2017-Nov-15 23:30N 43°22' E 007°25'815.9
2017-Nov-15 23:00N 43°18' E 007°16'815.4
2017-Nov-15 22:31N 43°14' E 007°07'24916.6
2017-Nov-15 07:31N 41°17' E 002°11'015.2
2017-Nov-15 07:29N 41°18' E 002°10'1 0.1
2017-Nov-15 00:24N 41°18' E 002°11'3 7.4
2017-Nov-14 23:56N 41°15' E 002°10'615.1
2017-Nov-14 23:30N 41°09' E 002°06'815.9
2017-Nov-14 23:00N 41°02' E 002°01'206 9.3
2017-Nov-14 00:47N 38°09' W 000°23'515.9
2017-Nov-14 00:30N 38°05' W 000°24'816.4
2017-Nov-14 00:00N 37°57' W 000°24'816.5
2017-Nov-13 23:30N 37°48' W 000°25'816.3
2017-Nov-13 23:00N 37°41' W 000°28'815.8
2017-Nov-13 22:30N 37°33' W 000°31'1516.3
2017-Nov-13 21:35N 37°23' W 000°45'22410.9
2017-Nov-13 01:06N 36°05' W 005°08'217.6
2017-Nov-13 01:00N 36°04' W 005°09'918.5
2017-Nov-13 00:30N 35°59' W 005°18'7717.1
2017-Nov-12 20:02N 35°18' W 006°38'20314.1
2017-Nov-12 05:41N 32°54' W 009°32'412.4
2017-Nov-12 05:24N 32°52' W 009°34'4716.0
2017-Nov-12 02:28N 32°19' W 010°15'9315.4
2017-Nov-11 20:25N 31°14' W 011°33'3 0.9
2017-Nov-11 17:34N 31°12' W 011°35'1413.4
2017-Nov-11 16:33N 31°03' W 011°47'113.6
2017-Nov-11 16:30N 31°03' W 011°48'713.7
2017-Nov-11 16:00N 30°58' W 011°54'713.8
2017-Nov-11 15:30N 30°55' W 012°01'713.8
2017-Nov-11 15:00N 30°51' W 012°07'913.8
2017-Nov-11 14:20N 30°46' W 012°17'2614.0
2017-Nov-11 12:29N 30°33' W 012°42'713.9
2017-Nov-11 12:00N 30°29' W 012°49'713.8
2017-Nov-11 11:31N 30°26' W 012°56'713.4
2017-Nov-11 11:00N 30°23' W 013°03'712.8
2017-Nov-11 10:26N 30°19' W 013°10'512.5
2017-Nov-11 10:00N 30°17' W 013°15'612.6
2017-Nov-11 09:30N 30°13' W 013°22'612.6
2017-Nov-11 09:00N 30°09' W 013°28'612.7
2017-Nov-11 08:30N 30°06' W 013°34'612.7
2017-Nov-11 08:00N 30°02' W 013°39'612.9
2017-Nov-11 07:30N 29°58' W 013°45'612.9
2017-Nov-11 07:00N 29°54' W 013°51'713.1
2017-Nov-11 06:30N 29°51' W 013°58'612.9
2017-Nov-11 06:00N 29°47' W 014°04'612.9
2017-Nov-11 05:30N 29°43' W 014°10'612.9
2017-Nov-11 05:00N 29°40' W 014°16'612.6
2017-Nov-11 04:30N 29°36' W 014°22'612.5
2017-Nov-11 04:00N 29°33' W 014°28'612.1
2017-Nov-11 03:30N 29°29' W 014°34'612.3
2017-Nov-11 03:00N 29°26' W 014°40'612.2
2017-Nov-11 02:30N 29°23' W 014°46'612.2
2017-Nov-11 02:00N 29°19' W 014°51'612.0
2017-Nov-11 01:30N 29°16' W 014°57'612.0
2017-Nov-11 01:00N 29°13' W 015°03'612.0
2017-Nov-11 00:30N 29°09' W 015°08'712.1
2017-Nov-10 23:58N 29°05' W 015°15'612.0
2017-Nov-10 23:29N 29°02' W 015°20'611.9
2017-Nov-10 23:00N 28°59' W 015°25'612.1
2017-Nov-10 22:30N 28°55' W 015°31'612.0
2017-Nov-10 22:00N 28°51' W 015°36'612.2
2017-Nov-10 21:30N 28°48' W 015°42'712.9
2017-Nov-10 21:00N 28°44' W 015°48'713.1
2017-Nov-10 20:30N 28°40' W 015°53'713.4
2017-Nov-10 20:00N 28°35' W 015°59'814.2
2017-Nov-10 19:28N 28°30' W 016°06'713.2
2017-Nov-10 18:55N 28°29' W 016°14'1 1.2
2017-Nov-10 18:19N 28°29' W 016°13'0 0.0
2017-Nov-10 15:22N 28°29' W 016°13'0 0.0
2017-Nov-10 14:49N 28°29' W 016°13'0 0.0
2017-Nov-10 13:10N 28°29' W 016°13'0 0.3
2017-Nov-10 12:59N 28°29' W 016°13'2 3.8
2017-Nov-10 12:28N 28°28' W 016°12'612.5
2017-Nov-10 12:00N 28°28' W 016°05'816.5
2017-Nov-10 11:30N 28°30' W 015°56'816.5
2017-Nov-10 11:00N 28°31' W 015°47'713.8
2017-Nov-10 10:30N 28°28' W 015°40'815.4
2017-Nov-10 10:00N 28°23' W 015°34'815.3
2017-Nov-10 09:30N 28°17' W 015°28'815.1
2017-Nov-10 09:00N 28°11' W 015°23'4 6.5
2017-Nov-10 08:27N 28°08' W 015°25'0 0.1
2017-Nov-10 08:00N 28°08' W 015°25'0 0.0
2017-Nov-10 07:30N 28°08' W 015°25'0 0.0
2017-Nov-10 07:00N 28°08' W 015°25'0 0.0
2017-Nov-10 06:30N 28°08' W 015°25'0 0.0
2017-Nov-10 06:00N 28°08' W 015°25'0 0.0
2017-Nov-10 05:30N 28°08' W 015°25'0 0.0
2017-Nov-10 04:36N 28°08' W 015°25'0 0.0
2017-Nov-10 04:21N 28°08' W 015°25'0 0.0
2017-Nov-10 03:51N 28°08' W 015°25'0 0.0
2017-Nov-10 03:24N 28°08' W 015°25'0 0.0
2017-Nov-10 02:54N 28°08' W 015°25'0 0.0
2017-Nov-10 02:24N 28°08' W 015°25'0 0.0
2017-Nov-10 01:54N 28°08' W 015°25'0 0.0
2017-Nov-10 01:24N 28°08' W 015°25'0 0.0
2017-Nov-10 00:54N 28°08' W 015°25'0 0.0
2017-Nov-10 00:27N 28°08' W 015°25'0 0.0
2017-Nov-09 23:57N 28°08' W 015°25'0 0.0
2017-Nov-09 23:27N 28°08' W 015°25'0 0.0
2017-Nov-09 22:57N 28°08' W 015°25'0 0.0
2017-Nov-09 22:27N 28°08' W 015°25'0 0.0
2017-Nov-09 21:57N 28°08' W 015°25'0 0.6
2017-Nov-09 21:31N 28°08' W 015°25'2 4.7
2017-Nov-09 21:01N 28°09' W 015°23'1 1.0
2017-Nov-09 20:31N 28°08' W 015°23'1 1.3
2017-Nov-09 20:01N 28°07' W 015°22'611.1
2017-Nov-09 19:31N 28°09' W 015°16'816.7
2017-Nov-09 19:01N 28°13' W 015°08'917.1
2017-Nov-09 18:31N 28°17' W 014°59'917.6
2017-Nov-09 18:01N 28°21' W 014°51'917.6
2017-Nov-09 17:31N 28°26' W 014°42'917.3
2017-Nov-09 17:00N 28°30' W 014°33'816.9
2017-Nov-09 16:30N 28°34' W 014°25'917.4
2017-Nov-09 16:00N 28°38' W 014°16'917.1
2017-Nov-09 15:30N 28°42' W 014°07'2117.1
2017-Nov-09 14:17N 28°49' W 013°45'517.5
2017-Nov-09 14:00N 28°51' W 013°40'816.7
2017-Nov-09 13:30N 28°57' W 013°32'2 3.3
2017-Nov-09 12:59N 28°58' W 013°32'0 0.0
2017-Nov-09 12:23N 28°58' W 013°32'0 0.0
2017-Nov-09 11:11N 28°58' W 013°32'0 0.0
2017-Nov-09 10:41N 28°58' W 013°32'0 0.0
2017-Nov-09 10:17N 28°58' W 013°32'0 0.0
2017-Nov-09 09:56N 28°58' W 013°32'0 0.0
2017-Nov-09 08:35N 28°58' W 013°32'0 0.0
2017-Nov-09 08:26N 28°58' W 013°32'0 0.0
2017-Nov-09 07:56N 28°58' W 013°32'0 0.0
2017-Nov-09 07:29N 28°58' W 013°32'0 0.0
2017-Nov-09 06:53N 28°58' W 013°32'0 0.0
2017-Nov-09 06:29N 28°58' W 013°32'0 0.0
2017-Nov-09 05:59N 28°58' W 013°32'0 0.0
2017-Nov-09 00:35N 28°58' W 013°32'0 0.0
2017-Nov-08 23:44N 28°58' W 013°32'0 0.0
2017-Nov-08 23:21N 28°58' W 013°32'1 2.2
2017-Nov-08 22:51N 28°57' W 013°32'614.6
2017-Nov-08 22:25N 28°54' W 013°38'1214.8
2017-Nov-08 21:36N 28°49' W 013°51'614.7
2017-Nov-08 21:10N 28°51' W 013°58'212.2
2017-Nov-08 21:00N 28°52' W 014°00'814.2
2017-Nov-08 20:27N 28°47' W 014°07'714.7
2017-Nov-08 20:00N 28°43' W 014°13'611.9
2017-Nov-08 19:30N 28°39' W 014°18'815.8
2017-Nov-08 19:00N 28°46' W 014°23'816.1
2017-Nov-08 18:30N 28°53' W 014°28'611.7
2017-Nov-08 18:00N 28°52' W 014°35'714.9
2017-Nov-08 17:30N 28°50' W 014°43'714.8
2017-Nov-08 17:00N 28°48' W 014°51'714.8
2017-Nov-08 16:30N 28°46' W 014°59'715.0
2017-Nov-08 16:00N 28°44' W 015°07'714.9
2017-Nov-08 15:30N 28°41' W 015°15'714.8
2017-Nov-08 15:00N 28°39' W 015°23'815.0
2017-Nov-08 14:30N 28°36' W 015°31'814.9
2017-Nov-08 14:00N 28°33' W 015°39'715.0
2017-Nov-08 13:30N 28°31' W 015°47'815.0
2017-Nov-08 13:00N 28°28' W 015°55'714.9
2017-Nov-08 12:31N 28°26' W 016°03'714.9
2017-Nov-08 12:00N 28°27' W 016°12'3 4.4
2017-Nov-08 11:24N 28°29' W 016°13'0 0.0
2017-Nov-08 09:42N 28°29' W 016°13'0 0.0
2017-Nov-08 09:27N 28°29' W 016°13'0 0.0
2017-Nov-08 08:57N 28°29' W 016°13'0 0.0
2017-Nov-08 08:27N 28°29' W 016°13'0 0.0
2017-Nov-08 07:54N 28°29' W 016°13'0 0.0
2017-Nov-08 07:12N 28°29' W 016°13'0 0.0
2017-Nov-08 06:57N 28°29' W 016°13'0 0.0
2017-Nov-08 06:30N 28°29' W 016°13'1 2.4
2017-Nov-08 05:58N 28°28' W 016°14'510.3
2017-Nov-08 05:31N 28°28' W 016°08'714.5
2017-Nov-08 05:00N 28°31' W 016°01'714.6
2017-Nov-08 04:30N 28°27' W 015°54'715.1
2017-Nov-08 04:01N 28°23' W 015°46'815.2
2017-Nov-08 03:30N 28°20' W 015°39'815.2
2017-Nov-08 03:01N 28°16' W 015°31'815.0
2017-Nov-08 02:30N 28°12' W 015°24'510.3
2017-Nov-08 02:00N 28°07' W 015°25'1 1.1
2017-Nov-08 01:21N 28°08' W 015°25'0 0.0
2017-Nov-08 00:54N 28°08' W 015°25'0 0.0
2017-Nov-08 00:24N 28°08' W 015°25'0 0.0
2017-Nov-07 23:51N 28°08' W 015°25'  
Track history (hours):
 
Tides and Currents Weather Stations Pressure Air Temp Water Temp Dewpoint Dewpoint Depression Visibility Wind Speed Wind Dir Waves Ship Positions

Doris Schepers

Last reported at 2017-Nov-17 23:26 UTC. Time now 2017-Nov-18 08:49 UTC.
Position N 41°18' E 002°11'.

Length 141 m; draft 5.8 m.

Type: Ship (hazmat cat A). MMSI: 255805878.

Date/timePositionNaut miles runAvg speedWind from/ knotsBaromVisibWave heightAir tempDewpointWater temp
2017-Nov-17 23:26N 41°18' E 002°11'24112.0
2017-Nov-17 03:19N 43°09' E 006°59'517.5
2017-Nov-17 03:00N 43°12' E 007°05'917.6
2017-Nov-17 02:31N 43°16' E 007°16'917.2
2017-Nov-17 02:01N 43°21' E 007°26'917.2
2017-Nov-17 01:30N 43°25' E 007°36'1517.2
2017-Nov-17 00:38N 43°33' E 007°54'217.8
2017-Nov-17 00:30N 43°35' E 007°56'1818.1
2017-Nov-16 23:31N 43°47' E 008°13'117.7
2017-Nov-16 23:28N 43°48' E 008°14'817.8
2017-Nov-16 23:00N 43°54' E 008°22'918.1
2017-Nov-16 22:31N 44°00' E 008°31'917.6
2017-Nov-16 22:01N 44°07' E 008°39'917.6
2017-Nov-16 21:30N 44°13' E 008°48'917.7
2017-Nov-16 21:01N 44°20' E 008°56'5 9.5
2017-Nov-16 20:30N 44°24' E 008°54'0 0.9
2017-Nov-16 19:57N 44°24' E 008°53'0 0.0
2017-Nov-16 19:30N 44°24' E 008°53'0 0.0
2017-Nov-16 18:57N 44°24' E 008°53'0 0.0
2017-Nov-16 18:30N 44°24' E 008°53'0 0.0
2017-Nov-16 18:00N 44°24' E 008°53'0 0.0
2017-Nov-16 17:27N 44°24' E 008°53'0 0.0
2017-Nov-16 17:00N 44°24' E 008°53'0 0.0
2017-Nov-16 16:30N 44°24' E 008°53'0 0.0
2017-Nov-16 16:00N 44°24' E 008°53'0 0.0
2017-Nov-16 15:30N 44°24' E 008°53'0 0.0
2017-Nov-16 15:00N 44°24' E 008°53'0 0.0
2017-Nov-16 14:30N 44°24' E 008°53'0 0.0
2017-Nov-16 14:00N 44°24' E 008°53'0 0.0
2017-Nov-16 13:30N 44°24' E 008°53'0 0.0
2017-Nov-16 13:00N 44°24' E 008°53'0 0.0
2017-Nov-16 12:30N 44°24' E 008°53'0 0.0
2017-Nov-16 12:00N 44°24' E 008°53'0 0.0
2017-Nov-16 11:30N 44°24' E 008°53'0 0.0
2017-Nov-16 11:00N 44°24' E 008°53'0 0.0
2017-Nov-16 10:30N 44°24' E 008°53'0 0.0
2017-Nov-16 10:00N 44°24' E 008°53'0 0.0
2017-Nov-16 09:30N 44°24' E 008°53'0 0.0
2017-Nov-16 09:00N 44°24' E 008°53'0 0.0
2017-Nov-16 08:30N 44°24' E 008°53'0 0.0
2017-Nov-16 08:00N 44°24' E 008°53'0 0.0
2017-Nov-16 07:30N 44°24' E 008°53'0 0.0
2017-Nov-16 07:00N 44°24' E 008°53'0 0.0
2017-Nov-16 06:30N 44°24' E 008°53'1 1.2
2017-Nov-16 06:00N 44°24' E 008°54'3 6.3
2017-Nov-16 05:30N 44°22' E 008°58'611.6
2017-Nov-16 05:00N 44°17' E 008°55'816.1
2017-Nov-16 04:30N 44°11' E 008°47'816.1
2017-Nov-16 04:00N 44°06' E 008°39'815.5
2017-Nov-16 03:30N 44°00' E 008°31'815.2
2017-Nov-16 03:00N 43°55' E 008°23'4315.1
2017-Nov-16 00:11N 43°28' E 007°37'315.5
2017-Nov-15 23:58N 43°26' E 007°33'715.5
2017-Nov-15 23:30N 43°22' E 007°25'815.9
2017-Nov-15 23:00N 43°18' E 007°16'815.4
2017-Nov-15 22:31N 43°14' E 007°07'24916.6
2017-Nov-15 07:31N 41°17' E 002°11'015.2
2017-Nov-15 07:29N 41°18' E 002°10'1 0.1
2017-Nov-15 00:24N 41°18' E 002°11'3 7.4
2017-Nov-14 23:56N 41°15' E 002°10'615.1
2017-Nov-14 23:30N 41°09' E 002°06'815.9
2017-Nov-14 23:00N 41°02' E 002°01'206 9.3
2017-Nov-14 00:47N 38°09' W 000°23'515.9
2017-Nov-14 00:30N 38°05' W 000°24'816.4
2017-Nov-14 00:00N 37°57' W 000°24'816.5
2017-Nov-13 23:30N 37°48' W 000°25'816.3
2017-Nov-13 23:00N 37°41' W 000°28'815.8
2017-Nov-13 22:30N 37°33' W 000°31'1516.3
2017-Nov-13 21:35N 37°23' W 000°45'22410.9
2017-Nov-13 01:06N 36°05' W 005°08'217.6
2017-Nov-13 01:00N 36°04' W 005°09'918.5
2017-Nov-13 00:30N 35°59' W 005°18'7717.1
2017-Nov-12 20:02N 35°18' W 006°38'20314.1
2017-Nov-12 05:41N 32°54' W 009°32'412.4
2017-Nov-12 05:24N 32°52' W 009°34'4716.0
2017-Nov-12 02:28N 32°19' W 010°15'9315.4
2017-Nov-11 20:25N 31°14' W 011°33'3 0.9
2017-Nov-11 17:34N 31°12' W 011°35'1413.4
2017-Nov-11 16:33N 31°03' W 011°47'113.6
2017-Nov-11 16:30N 31°03' W 011°48'713.7
2017-Nov-11 16:00N 30°58' W 011°54'713.8
2017-Nov-11 15:30N 30°55' W 012°01'713.8
2017-Nov-11 15:00N 30°51' W 012°07'913.8
2017-Nov-11 14:20N 30°46' W 012°17'2614.0
2017-Nov-11 12:29N 30°33' W 012°42'713.9
2017-Nov-11 12:00N 30°29' W 012°49'713.8
2017-Nov-11 11:31N 30°26' W 012°56'713.4
2017-Nov-11 11:00N 30°23' W 013°03'712.8
2017-Nov-11 10:26N 30°19' W 013°10'512.5
2017-Nov-11 10:00N 30°17' W 013°15'612.6
2017-Nov-11 09:30N 30°13' W 013°22'612.6
2017-Nov-11 09:00N 30°09' W 013°28'612.7
2017-Nov-11 08:30N 30°06' W 013°34'612.7
2017-Nov-11 08:00N 30°02' W 013°39'612.9
2017-Nov-11 07:30N 29°58' W 013°45'612.9
2017-Nov-11 07:00N 29°54' W 013°51'713.1
2017-Nov-11 06:30N 29°51' W 013°58'612.9
2017-Nov-11 06:00N 29°47' W 014°04'612.9
2017-Nov-11 05:30N 29°43' W 014°10'612.9
2017-Nov-11 05:00N 29°40' W 014°16'612.6
2017-Nov-11 04:30N 29°36' W 014°22'612.5
2017-Nov-11 04:00N 29°33' W 014°28'612.1
2017-Nov-11 03:30N 29°29' W 014°34'612.3
2017-Nov-11 03:00N 29°26' W 014°40'612.2
2017-Nov-11 02:30N 29°23' W 014°46'612.2
2017-Nov-11 02:00N 29°19' W 014°51'612.0
2017-Nov-11 01:30N 29°16' W 014°57'612.0
2017-Nov-11 01:00N 29°13' W 015°03'612.0
2017-Nov-11 00:30N 29°09' W 015°08'712.1
2017-Nov-10 23:58N 29°05' W 015°15'612.0
2017-Nov-10 23:29N 29°02' W 015°20'611.9
2017-Nov-10 23:00N 28°59' W 015°25'612.1
2017-Nov-10 22:30N 28°55' W 015°31'612.0
2017-Nov-10 22:00N 28°51' W 015°36'612.2
2017-Nov-10 21:30N 28°48' W 015°42'712.9
2017-Nov-10 21:00N 28°44' W 015°48'713.1
2017-Nov-10 20:30N 28°40' W 015°53'713.4
2017-Nov-10 20:00N 28°35' W 015°59'814.2
2017-Nov-10 19:28N 28°30' W 016°06'713.2
2017-Nov-10 18:55N 28°29' W 016°14'1 1.2
2017-Nov-10 18:19N 28°29' W 016°13'0 0.0
2017-Nov-10 15:22N 28°29' W 016°13'0 0.0
2017-Nov-10 14:49N 28°29' W 016°13'0 0.0
2017-Nov-10 13:10N 28°29' W 016°13'0 0.3
2017-Nov-10 12:59N 28°29' W 016°13'2 3.8
2017-Nov-10 12:28N 28°28' W 016°12'612.5
2017-Nov-10 12:00N 28°28' W 016°05'816.5
2017-Nov-10 11:30N 28°30' W 015°56'816.5
2017-Nov-10 11:00N 28°31' W 015°47'713.8
2017-Nov-10 10:30N 28°28' W 015°40'815.4
2017-Nov-10 10:00N 28°23' W 015°34'815.3
2017-Nov-10 09:30N 28°17' W 015°28'815.1
2017-Nov-10 09:00N 28°11' W 015°23'4 6.5
2017-Nov-10 08:27N 28°08' W 015°25'0 0.1
2017-Nov-10 08:00N 28°08' W 015°25'0 0.0
2017-Nov-10 07:30N 28°08' W 015°25'0 0.0
2017-Nov-10 07:00N 28°08' W 015°25'0 0.0
2017-Nov-10 06:30N 28°08' W 015°25'0 0.0
2017-Nov-10 06:00N 28°08' W 015°25'0 0.0
2017-Nov-10 05:30N 28°08' W 015°25'0 0.0
2017-Nov-10 04:36N 28°08' W 015°25'0 0.0
2017-Nov-10 04:21N 28°08' W 015°25'0 0.0
2017-Nov-10 03:51N 28°08' W 015°25'0 0.0
2017-Nov-10 03:24N 28°08' W 015°25'0 0.0
2017-Nov-10 02:54N 28°08' W 015°25'0 0.0
2017-Nov-10 02:24N 28°08' W 015°25'0 0.0
2017-Nov-10 01:54N 28°08' W 015°25'0 0.0
2017-Nov-10 01:24N 28°08' W 015°25'0 0.0
2017-Nov-10 00:54N 28°08' W 015°25'0 0.0
2017-Nov-10 00:27N 28°08' W 015°25'0 0.0
2017-Nov-09 23:57N 28°08' W 015°25'0 0.0
2017-Nov-09 23:27N 28°08' W 015°25'0 0.0
2017-Nov-09 22:57N 28°08' W 015°25'0 0.0
2017-Nov-09 22:27N 28°08' W 015°25'0 0.0
2017-Nov-09 21:57N 28°08' W 015°25'0 0.6
2017-Nov-09 21:31N 28°08' W 015°25'2 4.7
2017-Nov-09 21:01N 28°09' W 015°23'1 1.0
2017-Nov-09 20:31N 28°08' W 015°23'1 1.3
2017-Nov-09 20:01N 28°07' W 015°22'611.1
2017-Nov-09 19:31N 28°09' W 015°16'816.7
2017-Nov-09 19:01N 28°13' W 015°08'917.1
2017-Nov-09 18:31N 28°17' W 014°59'917.6
2017-Nov-09 18:01N 28°21' W 014°51'917.6
2017-Nov-09 17:31N 28°26' W 014°42'917.3
2017-Nov-09 17:00N 28°30' W 014°33'816.9
2017-Nov-09 16:30N 28°34' W 014°25'917.4
2017-Nov-09 16:00N 28°38' W 014°16'917.1
2017-Nov-09 15:30N 28°42' W 014°07'2117.1
2017-Nov-09 14:17N 28°49' W 013°45'517.5
2017-Nov-09 14:00N 28°51' W 013°40'816.7
2017-Nov-09 13:30N 28°57' W 013°32'2 3.3
2017-Nov-09 12:59N 28°58' W 013°32'0 0.0
2017-Nov-09 12:23N 28°58' W 013°32'0 0.0
2017-Nov-09 11:11N 28°58' W 013°32'0 0.0
2017-Nov-09 10:41N 28°58' W 013°32'0 0.0
2017-Nov-09 10:17N 28°58' W 013°32'0 0.0
2017-Nov-09 09:56N 28°58' W 013°32'0 0.0
2017-Nov-09 08:35N 28°58' W 013°32'0 0.0
2017-Nov-09 08:26N 28°58' W 013°32'0 0.0
2017-Nov-09 07:56N 28°58' W 013°32'0 0.0
2017-Nov-09 07:29N 28°58' W 013°32'0 0.0
2017-Nov-09 06:53N 28°58' W 013°32'0 0.0
2017-Nov-09 06:29N 28°58' W 013°32'0 0.0
2017-Nov-09 05:59N 28°58' W 013°32'0 0.0
2017-Nov-09 00:35N 28°58' W 013°32'0 0.0
2017-Nov-08 23:44N 28°58' W 013°32'0 0.0
2017-Nov-08 23:21N 28°58' W 013°32'1 2.2
2017-Nov-08 22:51N 28°57' W 013°32'614.6
2017-Nov-08 22:25N 28°54' W 013°38'1214.8
2017-Nov-08 21:36N 28°49' W 013°51'614.7
2017-Nov-08 21:10N 28°51' W 013°58'212.2
2017-Nov-08 21:00N 28°52' W 014°00'814.2
2017-Nov-08 20:27N 28°47' W 014°07'714.7
2017-Nov-08 20:00N 28°43' W 014°13'611.9
2017-Nov-08 19:30N 28°39' W 014°18'815.8
2017-Nov-08 19:00N 28°46' W 014°23'816.1
2017-Nov-08 18:30N 28°53' W 014°28'611.7
2017-Nov-08 18:00N 28°52' W 014°35'714.9
2017-Nov-08 17:30N 28°50' W 014°43'714.8
2017-Nov-08 17:00N 28°48' W 014°51'714.8
2017-Nov-08 16:30N 28°46' W 014°59'715.0
2017-Nov-08 16:00N 28°44' W 015°07'714.9
2017-Nov-08 15:30N 28°41' W 015°15'714.8
2017-Nov-08 15:00N 28°39' W 015°23'815.0
2017-Nov-08 14:30N 28°36' W 015°31'814.9
2017-Nov-08 14:00N 28°33' W 015°39'715.0
2017-Nov-08 13:30N 28°31' W 015°47'815.0
2017-Nov-08 13:00N 28°28' W 015°55'714.9
2017-Nov-08 12:31N 28°26' W 016°03'714.9
2017-Nov-08 12:00N 28°27' W 016°12'3 4.4
2017-Nov-08 11:24N 28°29' W 016°13'0 0.0
2017-Nov-08 09:42N 28°29' W 016°13'0 0.0
2017-Nov-08 09:27N 28°29' W 016°13'0 0.0
2017-Nov-08 08:57N 28°29' W 016°13'0 0.0
2017-Nov-08 08:27N 28°29' W 016°13'0 0.0
2017-Nov-08 07:54N 28°29' W 016°13'0 0.0
2017-Nov-08 07:12N 28°29' W 016°13'0 0.0
2017-Nov-08 06:57N 28°29' W 016°13'0 0.0
2017-Nov-08 06:30N 28°29' W 016°13'1 2.4
2017-Nov-08 05:58N 28°28' W 016°14'510.3
2017-Nov-08 05:31N 28°28' W 016°08'714.5
2017-Nov-08 05:00N 28°31' W 016°01'714.6
2017-Nov-08 04:30N 28°27' W 015°54'715.1
2017-Nov-08 04:01N 28°23' W 015°46'815.2
2017-Nov-08 03:30N 28°20' W 015°39'815.2
2017-Nov-08 03:01N 28°16' W 015°31'815.0
2017-Nov-08 02:30N 28°12' W 015°24'510.3
2017-Nov-08 02:00N 28°07' W 015°25'1 1.1
2017-Nov-08 01:21N 28°08' W 015°25'0 0.0
2017-Nov-08 00:54N 28°08' W 015°25'0 0.0
2017-Nov-08 00:24N 28°08' W 015°25'0 0.0
2017-Nov-07 23:51N 28°08' W 015°25'  

Dump ship's entire track history